Bookmark and Share
Track history (hours):
 

PrinceSS Juana K

Last reported at 2014-Apr-24 00:16 UTC. Time now 2014-Apr-24 11:17 UTC.
Position N 37°39' E 026°06'.

Length 145 m; draft 5.5 m.

Type: Cargo ship. MMSI: 352982000.

NotesDate/timePositionNaut miles runAvg speedWind from/ knotsBaromVisibWave heightAir tempDewpointWater temp
2014-Apr-24 00:16N 37°39' E 026°06'0 0.6
2014-Apr-23 23:31N 37°39' E 026°06'0 0.1
2014-Apr-23 22:32N 37°39' E 026°06'0 0.1
2014-Apr-23 21:28N 37°39' E 026°06'0 0.1
2014-Apr-23 20:31N 37°39' E 026°06'0 0.1
2014-Apr-23 19:33N 37°39' E 026°06'1 1.4
2014-Apr-23 18:33N 37°38' E 026°06'1 1.3
2014-Apr-23 17:32N 37°39' E 026°06'0 0.0
2014-Apr-23 16:31N 37°39' E 026°06'0 0.1
2014-Apr-23 15:32N 37°39' E 026°06'0 0.0
2014-Apr-23 14:26N 37°39' E 026°06'0 0.1
2014-Apr-23 13:32N 37°39' E 026°06'0 0.0
2014-Apr-23 12:33N 37°39' E 026°06'0 0.0
2014-Apr-23 11:33N 37°39' E 026°06'0 0.1
2014-Apr-23 10:33N 37°39' E 026°06'0 0.0
2014-Apr-23 09:30N 37°39' E 026°06'0 0.0
2014-Apr-23 08:33N 37°39' E 026°06'0 0.0
2014-Apr-23 07:30N 37°39' E 026°06'0 0.0
2014-Apr-23 06:33N 37°39' E 026°06'0 0.0
2014-Apr-23 05:28N 37°39' E 026°06'0 0.0
2014-Apr-23 04:32N 37°39' E 026°06'0 0.0
2014-Apr-23 03:30N 37°39' E 026°06'0 0.0
2014-Apr-23 02:31N 37°39' E 026°06'0 0.1
2014-Apr-23 01:32N 37°39' E 026°06'0 0.0
2014-Apr-23 00:30N 37°39' E 026°06'0 0.0
2014-Apr-22 23:28N 37°39' E 026°06'0 0.0
2014-Apr-22 22:32N 37°39' E 026°06'0 0.1
2014-Apr-22 21:33N 37°39' E 026°06'0 0.0
2014-Apr-22 20:31N 37°39' E 026°06'0 0.0
2014-Apr-22 19:31N 37°39' E 026°06'0 0.1
2014-Apr-22 18:32N 37°39' E 026°06'0 0.0
2014-Apr-22 17:33N 37°39' E 026°06'0 0.1
2014-Apr-22 16:33N 37°39' E 026°06'0 0.0
2014-Apr-22 15:31N 37°39' E 026°06'0 0.0
2014-Apr-22 14:34N 37°39' E 026°06'0 0.0
2014-Apr-22 13:21N 37°39' E 026°06'0 0.1
2014-Apr-22 12:32N 37°39' E 026°06'0 0.0
2014-Apr-22 11:32N 37°39' E 026°06'0 0.0
2014-Apr-22 10:30N 37°39' E 026°06'0 0.3
2014-Apr-22 09:22N 37°39' E 026°06'5 6.6
2014-Apr-22 08:33N 37°36' E 025°60'9 8.7
2014-Apr-22 07:30N 37°27' E 025°59'1010.2
2014-Apr-22 06:32N 37°20' E 026°08'10 9.9
2014-Apr-22 05:33N 37°14' E 026°17'10 9.8
2014-Apr-22 04:33N 37°07' E 026°26'1010.0
2014-Apr-22 03:33N 36°60' E 026°35'10 9.9
2014-Apr-22 02:33N 36°52' E 026°42'2310.1
2014-Apr-22 00:18N 36°34' E 026°60'810.2
2014-Apr-21 23:33N 36°28' E 027°05'1010.4
2014-Apr-21 22:33N 36°20' E 027°13'98 9.6
2014-Apr-21 12:20N 34°53' E 028°09'7 9.4
2014-Apr-21 11:33N 34°46' E 028°12'46 9.1
2014-Apr-21 06:33N 34°03' E 028°29'8 7.6
2014-Apr-21 05:33N 33°56' E 028°34'11 8.8
2014-Apr-21 04:21N 33°46' E 028°39'7 9.0
2014-Apr-21 03:32N 33°40' E 028°42'13 9.2
2014-Apr-21 02:10N 33°28' E 028°48'83 9.3
2014-Apr-20 17:13N 32°10' E 029°21'27 9.1
2014-Apr-20 14:14N 31°45' E 029°33'6 9.1
2014-Apr-20 13:33N 31°39' E 029°36'  

Dump ship's entire track history

sailing weather and tide predictions

PrinceSS Juana K — HPFV — position and weather